sensor_id;sensor_type;location;lat;lon;timestamp;pressure;altitude;pressure_sealevel;temperature;humidity
4123;BME280;2075;51.062;6.920;2023-05-27T00:01:18;93526.19;;;-144.48;94.35
4123;BME280;2075;51.062;6.920;2023-05-27T00:04:03;93566.81;;;-144.48;95.29
4123;BME280;2075;51.062;6.920;2023-05-27T00:06:49;93544.47;;;-144.48;95.18
4123;BME280;2075;51.062;6.920;2023-05-27T00:09:34;93613.53;;;-144.48;95.05
4123;BME280;2075;51.062;6.920;2023-05-27T00:12:20;93501.81;;;-144.48;95.39
4123;BME280;2075;51.062;6.920;2023-05-27T00:15:06;93453.06;;;-144.48;95.56
4123;BME280;2075;51.062;6.920;2023-05-27T00:17:53;93485.56;;;-144.48;95.44
4123;BME280;2075;51.062;6.920;2023-05-27T00:20:40;93546.50;;;-144.48;95.08
4123;BME280;2075;51.062;6.920;2023-05-27T00:23:25;93432.75;;;-144.48;95.53
4123;BME280;2075;51.062;6.920;2023-05-27T00:26:11;93430.72;;;-144.48;95.84
4123;BME280;2075;51.062;6.920;2023-05-27T00:28:57;93209.34;;;-144.48;96.79
4123;BME280;2075;51.062;6.920;2023-05-27T00:31:43;92744.25;;;-144.48;97.74
4123;BME280;2075;51.062;6.920;2023-05-27T00:34:29;92514.78;;;-144.48;97.75
4123;BME280;2075;51.062;6.920;2023-05-27T00:37:15;92484.34;;;-144.48;97.72
4123;BME280;2075;51.062;6.920;2023-05-27T00:40:00;91645.78;;;-144.48;99.01
4123;BME280;2075;51.062;6.920;2023-05-27T00:42:46;91605.19;;;-144.48;98.58
4123;BME280;2075;51.062;6.920;2023-05-27T00:45:32;91426.53;;;-144.48;98.92
4123;BME280;2075;51.062;6.920;2023-05-27T00:48:17;90870.38;;;-144.48;99.16
4123;BME280;2075;51.062;6.920;2023-05-27T00:51:04;90352.84;;;-144.48;99.63
4123;BME280;2075;51.062;6.920;2023-05-27T00:53:49;88796.66;;;-144.48;100.00
4123;BME280;2075;51.062;6.920;2023-05-27T00:56:36;87145.91;;;-144.48;100.00
4123;BME280;2075;51.062;6.920;2023-05-27T00:59:22;87760.28;;;-144.48;100.00
4123;BME280;2075;51.062;6.920;2023-05-27T01:02:07;87770.44;;;-144.48;100.00
4123;BME280;2075;51.062;6.920;2023-05-27T01:04:53;86083.66;;;-144.48;100.00
4123;BME280;2075;51.062;6.920;2023-05-27T01:07:48;84946.78;;;-144.48;100.00
4123;BME280;2075;51.062;6.920;2023-05-27T01:10:40;83488.25;;;-144.48;100.00
4123;BME280;2075;51.062;6.920;2023-05-27T01:13:33;82860.44;;;-144.48;100.00
4123;BME280;2075;51.062;6.920;2023-05-27T01:16:20;81283.34;;;-144.48;100.00
4123;BME280;2075;51.062;6.920;2023-05-27T01:19:07;78547.94;;;-144.48;100.00
4123;BME280;2075;51.062;6.920;2023-05-27T01:21:58;78339.66;;;-144.48;100.00
4123;BME280;2075;51.062;6.920;2023-05-27T01:24:46;76509.94;;;-144.48;100.00
4123;BME280;2075;51.062;6.920;2023-05-27T01:27:32;76235.06;;;-144.48;100.00
4123;BME280;2075;51.062;6.920;2023-05-27T01:30:17;72807.03;;;-144.48;100.00
4123;BME280;2075;51.062;6.920;2023-05-27T01:33:07;69451.00;;;-144.48;100.00
4123;BME280;2075;51.062;6.920;2023-05-27T01:35:58;66096.25;;;-144.48;100.00
4123;BME280;2075;51.062;6.920;2023-05-27T01:38:46;64549.03;;;-144.48;100.00
4123;BME280;2075;51.062;6.920;2023-05-27T01:41:34;67644.19;;;-144.48;100.00
4123;BME280;2075;51.062;6.920;2023-05-27T01:44:21;72405.28;;;-144.48;100.00
4123;BME280;2075;51.062;6.920;2023-05-27T01:47:06;68160.31;;;-144.48;100.00
4123;BME280;2075;51.062;6.920;2023-05-27T01:49:51;61971.84;;;-144.48;100.00
4123;BME280;2075;51.062;6.920;2023-05-27T01:52:37;61971.84;;;-144.48;100.00
4123;BME280;2075;51.062;6.920;2023-05-27T01:55:22;66870.13;;;-144.48;100.00
4123;BME280;2075;51.062;6.920;2023-05-27T01:58:09;61456.66;;;-144.48;100.00
4123;BME280;2075;51.062;6.920;2023-05-27T02:00:54;56823.38;;;-144.48;100.00
4123;BME280;2075;51.062;6.920;2023-05-27T02:03:40;56823.38;;;-144.48;100.00
4123;BME280;2075;51.062;6.920;2023-05-27T02:06:26;56051.78;;;-144.48;100.00
4123;BME280;2075;51.062;6.920;2023-05-27T02:09:12;55280.38;;;-144.48;100.00
4123;BME280;2075;51.062;6.920;2023-05-27T02:11:58;51169.06;;;-144.48;100.00
4123;BME280;2075;51.062;6.920;2023-05-27T02:14:45;45267.84;;;-144.48;100.00
4123;BME280;2075;51.062;6.920;2023-05-27T02:17:30;42961.47;;;-144.48;100.00
4123;BME280;2075;51.062;6.920;2023-05-27T02:20:15;40144.72;;;-144.48;100.00
4123;BME280;2075;51.062;6.920;2023-05-27T02:23:05;34773.81;;;-144.48;100.00
4123;BME280;2075;51.062;6.920;2023-05-27T02:25:51;26606.16;;;-144.48;100.00
4123;BME280;2075;51.062;6.920;2023-05-27T02:28:38;26606.16;;;-144.48;100.00
4123;BME280;2075;51.062;6.920;2023-05-27T02:31:24;26096.34;;;-144.48;100.00
4123;BME280;2075;51.062;6.920;2023-05-27T02:34:09;24567.38;;;-144.48;100.00
4123;BME280;2075;51.062;6.920;2023-05-27T02:36:55;27371.03;;;-144.48;100.00
4123;BME280;2075;51.062;6.920;2023-05-27T02:39:40;28901.31;;;-144.48;100.00
4123;BME280;2075;51.062;6.920;2023-05-27T02:42:26;26351.25;;;-144.48;100.00
4123;BME280;2075;51.062;6.920;2023-05-27T02:45:11;24312.59;;;-144.48;100.00
4123;BME280;2075;51.062;6.920;2023-05-27T02:47:58;21766.06;;;-144.48;100.00
4123;BME280;2075;51.062;6.920;2023-05-27T02:50:45;17441.41;;;-144.48;100.00
4123;BME280;2075;51.062;6.920;2023-05-27T02:53:30;15916.41;;;-144.48;100.00
4123;BME280;2075;51.062;6.920;2023-05-27T02:56:15;13630.22;;;-144.48;100.00
4123;BME280;2075;51.062;6.920;2023-05-27T02:59:01;12107.00;;;-144.48;100.00
4123;BME280;2075;51.062;6.920;2023-05-27T03:01:46;13376.31;;;-144.48;100.00
4123;BME280;2075;51.062;6.920;2023-05-27T03:04:35;15154.19;;;-144.48;100.00
4123;BME280;2075;51.062;6.920;2023-05-27T03:07:20;17695.66;;;-144.48;100.00
4123;BME280;2075;51.062;6.920;2023-05-27T03:10:07;16424.66;;;-144.48;100.00
4123;BME280;2075;51.062;6.920;2023-05-27T03:12:53;14900.13;;;-144.48;100.00
4123;BME280;2075;51.062;6.920;2023-05-27T03:15:41;13884.19;;;-144.48;100.00
4123;BME280;2075;51.062;6.920;2023-05-27T03:18:27;15408.25;;;-144.48;100.00
4123;BME280;2075;51.062;6.920;2023-05-27T03:21:14;12868.53;;;-144.48;100.00
4123;BME280;2075;51.062;6.920;2023-05-27T03:24:02;12360.81;;;-144.48;100.00
4123;BME280;2075;51.062;6.920;2023-05-27T03:26:47;10838.16;;;-144.48;100.00
4123;BME280;2075;51.062;6.920;2023-05-27T03:29:33;9062.59;;;-144.48;100.00
4123;BME280;2075;51.062;6.920;2023-05-27T03:32:19;7794.94;;;-144.48;100.00
4123;BME280;2075;51.062;6.920;2023-05-27T03:35:07;7288.00;;;-144.48;100.00
4123;BME280;2075;51.062;6.920;2023-05-27T03:37:54;5767.69;;;-144.48;100.00
4123;BME280;2075;51.062;6.920;2023-05-27T03:40:39;5767.69;;;-144.48;100.00
4123;BME280;2075;51.062;6.920;2023-05-27T03:43:27;6274.38;;;-144.48;100.00
4123;BME280;2075;51.062;6.920;2023-05-27T03:46:12;8555.47;;;-144.48;100.00
4123;BME280;2075;51.062;6.920;2023-05-27T03:48:57;11853.19;;;-144.48;100.00
4123;BME280;2075;51.062;6.920;2023-05-27T03:51:43;13630.22;;;-144.48;100.00
4123;BME280;2075;51.062;6.920;2023-05-27T03:54:31;15662.31;;;-144.48;100.00
4123;BME280;2075;51.062;6.920;2023-05-27T03:57:17;20239.06;;;-144.48;100.00
4123;BME280;2075;51.062;6.920;2023-05-27T04:00:03;22529.81;;;-144.48;100.00
4123;BME280;2075;51.062;6.920;2023-05-27T04:02:54;21766.06;;;-144.48;100.00
4123;BME280;2075;51.062;6.920;2023-05-27T04:05:40;24057.88;;;-144.48;100.00
4123;BME280;2075;51.062;6.920;2023-05-27T04:08:25;29921.88;;;-144.48;100.00
4123;BME280;2075;51.062;6.920;2023-05-27T04:11:12;37841.84;;;-144.48;100.00
4123;BME280;2075;51.062;6.920;2023-05-27T04:13:58;43986.31;;;-144.48;100.00
4123;BME280;2075;51.062;6.920;2023-05-27T04:16:43;49885.31;;;-144.48;100.00
4123;BME280;2075;51.062;6.920;2023-05-27T04:19:28;57595.16;;;-144.48;100.00
4123;BME280;2075;51.062;6.920;2023-05-27T04:22:16;62744.81;;;-144.48;100.00
4123;BME280;2075;51.062;6.920;2023-05-27T04:25:03;66096.25;;;-144.48;100.00
4123;BME280;2075;51.062;6.920;2023-05-27T04:27:56;75843.00;;;-144.48;100.00
4123;BME280;2075;51.062;6.920;2023-05-27T04:30:42;79292.28;;;-144.48;100.00
4123;BME280;2075;51.062;6.920;2023-05-27T04:33:35;88334.22;;;-144.48;100.00
4123;BME280;2075;51.062;6.920;2023-05-27T04:36:21;91146.41;;;-144.48;99.13
4123;BME280;2075;51.062;6.920;2023-05-27T04:39:16;90462.44;;;-144.48;99.55
4123;BME280;2075;51.062;6.920;2023-05-27T04:42:03;89636.56;;;-144.48;100.00
4123;BME280;2075;51.062;6.920;2023-05-27T04:44:51;91387.97;;;-144.48;99.10
4123;BME280;2075;51.062;6.920;2023-05-27T04:47:37;91968.59;;;-144.48;98.13
4123;BME280;2075;51.062;6.920;2023-05-27T04:50:25;92898.59;;;-144.48;96.97
4123;BME280;2075;51.062;6.920;2023-05-27T04:53:11;93211.38;;;-144.48;95.95
4123;BME280;2075;51.062;6.920;2023-05-27T04:55:56;93408.38;;;-144.48;94.47
4123;BME280;2075;51.062;6.920;2023-05-27T04:58:42;93680.56;;;-144.48;86.77
4123;BME280;2075;51.062;6.920;2023-05-27T05:01:29;93312.91;;;-144.48;59.61
4123;BME280;2075;51.062;6.920;2023-05-27T05:04:35;92636.63;;;-144.48;42.46
4123;BME280;2075;51.062;6.920;2023-05-27T05:07:22;92401.06;;;-144.48;36.90
4123;BME280;2075;51.062;6.920;2023-05-27T05:10:10;92204.13;;;-144.48;34.82
4123;BME280;2075;51.062;6.920;2023-05-27T05:13:04;91804.16;;;-144.48;32.33
4123;BME280;2075;51.062;6.920;2023-05-27T05:15:50;91617.38;;;-144.48;30.51
4123;BME280;2075;51.062;6.920;2023-05-27T05:18:38;91444.81;;;-144.48;29.70
4123;BME280;2075;51.062;6.920;2023-05-27T05:21:23;91298.66;;;-144.48;28.63
4123;BME280;2075;51.062;6.920;2023-05-27T05:24:09;91300.69;;;-144.48;28.66
4123;BME280;2075;51.062;6.920;2023-05-27T05:26:56;91369.72;;;-144.48;28.14
4123;BME280;2075;51.062;6.920;2023-05-27T05:29:43;91113.94;;;-144.48;27.39
4123;BME280;2075;51.062;6.920;2023-05-27T05:32:28;91055.06;;;-144.48;27.19
4123;BME280;2075;51.062;6.920;2023-05-27T05:35:16;91095.66;;;-144.48;27.52
4123;BME280;2075;51.062;6.920;2023-05-27T05:38:06;91629.53;;;-144.48;28.91
4123;BME280;2075;51.062;6.920;2023-05-27T05:40:52;90984.03;;;-144.48;27.08
4123;BME280;2075;51.062;6.920;2023-05-27T05:43:39;91105.81;;;-144.48;27.09
4123;BME280;2075;51.062;6.920;2023-05-27T05:46:25;91142.34;;;-144.48;27.30
4123;BME280;2075;51.062;6.920;2023-05-27T05:49:10;91111.91;;;-144.48;27.11
4123;BME280;2075;51.062;6.920;2023-05-27T05:52:02;91142.34;;;-144.48;27.00
4123;BME280;2075;51.062;6.920;2023-05-27T05:54:48;91485.41;;;-144.48;27.93
4123;BME280;2075;51.062;6.920;2023-05-27T05:57:34;91335.19;;;-144.48;27.76
4123;BME280;2075;51.062;6.920;2023-05-27T06:00:20;91010.41;;;-144.48;27.19
4123;BME280;2075;51.062;6.920;2023-05-27T06:03:13;90827.75;;;-144.48;26.01
4123;BME280;2075;51.062;6.920;2023-05-27T06:06:11;90772.94;;;-144.48;25.62
4123;BME280;2075;51.062;6.920;2023-05-27T06:09:15;90890.66;;;-144.48;25.87
4123;BME280;2075;51.062;6.920;2023-05-27T06:12:01;90663.34;;;-144.48;25.81
4123;BME280;2075;51.062;6.920;2023-05-27T06:14:53;89888.16;;;-144.48;23.92
4123;BME280;2075;51.062;6.920;2023-05-27T06:17:45;89644.66;;;-144.48;23.35
4123;BME280;2075;51.062;6.920;2023-05-27T06:20:31;89936.84;;;-144.48;23.39
4123;BME280;2075;51.062;6.920;2023-05-27T06:23:17;90208.75;;;-144.48;23.65
4123;BME280;2075;51.062;6.920;2023-05-27T06:26:26;90358.94;;;-144.48;24.36
4123;BME280;2075;51.062;6.920;2023-05-27T06:29:15;90375.16;;;-144.48;23.65
4123;BME280;2075;51.062;6.920;2023-05-27T06:32:02;90436.03;;;-144.48;24.57
4123;BME280;2075;51.062;6.920;2023-05-27T06:34:53;90078.88;;;-144.48;23.74
4123;BME280;2075;51.062;6.920;2023-05-27T06:37:41;89660.91;;;-144.48;23.64
4123;BME280;2075;51.062;6.920;2023-05-27T06:40:28;90158.03;;;-144.48;23.92
4123;BME280;2075;51.062;6.920;2023-05-27T06:43:16;90153.97;;;-144.48;23.99
4123;BME280;2075;51.062;6.920;2023-05-27T06:46:32;89604.09;;;-144.48;22.79
4123;BME280;2075;51.062;6.920;2023-05-27T06:49:23;89845.53;;;-144.48;22.61
4123;BME280;2075;51.062;6.920;2023-05-27T06:52:09;89368.75;;;-144.48;22.51
4123;BME280;2075;51.062;6.920;2023-05-27T06:55:08;88618.16;;;-144.48;21.44
4123;BME280;2075;51.062;6.920;2023-05-27T06:58:22;88622.22;;;-144.48;21.50
4123;BME280;2075;51.062;6.920;2023-05-27T07:01:13;88679.03;;;-144.48;21.71
4123;BME280;2075;51.062;6.920;2023-05-27T07:04:09;89352.50;;;-144.48;22.42
4123;BME280;2075;51.062;6.920;2023-05-27T07:07:02;88683.06;;;-144.48;21.21
4123;BME280;2075;51.062;6.920;2023-05-27T07:09:48;89034.00;;;-144.48;21.81
4123;BME280;2075;51.062;6.920;2023-05-27T07:12:39;89214.56;;;-144.48;22.07
4123;BME280;2075;51.062;6.920;2023-05-27T07:15:41;88656.72;;;-144.48;21.76
4123;BME280;2075;51.062;6.920;2023-05-27T07:18:27;88936.63;;;-144.48;21.50
4123;BME280;2075;51.062;6.920;2023-05-27T07:21:17;88658.75;;;-144.48;21.43
4123;BME280;2075;51.062;6.920;2023-05-27T07:24:06;88551.25;;;-144.48;21.28
4123;BME280;2075;51.062;6.920;2023-05-27T07:26:55;88263.22;;;-144.48;21.03
4123;BME280;2075;51.062;6.920;2023-05-27T07:29:42;88478.22;;;-144.48;21.07
4123;BME280;2075;51.062;6.920;2023-05-27T07:32:45;88881.88;;;-144.48;21.74
4123;BME280;2075;51.062;6.920;2023-05-27T07:35:31;88821.00;;;-144.48;21.71
4123;BME280;2075;51.062;6.920;2023-05-27T07:38:17;88869.69;;;-144.48;21.75
4123;BME280;2075;51.062;6.920;2023-05-27T07:41:02;89453.94;;;-144.48;22.30
4123;BME280;2075;51.062;6.920;2023-05-27T07:43:48;89102.97;;;-144.48;21.60
4123;BME280;2075;51.062;6.920;2023-05-27T07:46:34;88496.47;;;-144.48;21.13
4123;BME280;2075;51.062;6.920;2023-05-27T07:49:25;88526.91;;;-144.48;21.04
4123;BME280;2075;51.062;6.920;2023-05-27T07:52:40;88374.78;;;-144.48;21.43
4123;BME280;2075;51.062;6.920;2023-05-27T07:55:39;89543.22;;;-144.48;22.83
4123;BME280;2075;51.062;6.920;2023-05-27T07:58:24;89052.25;;;-144.48;21.74
4123;BME280;2075;51.062;6.920;2023-05-27T08:01:22;88898.09;;;-144.48;21.42
4123;BME280;2075;51.062;6.920;2023-05-27T08:04:11;88786.53;;;-144.48;21.43
4123;BME280;2075;51.062;6.920;2023-05-27T08:07:16;88078.69;;;-144.48;20.68
4123;BME280;2075;51.062;6.920;2023-05-27T08:10:10;88470.09;;;-144.48;21.04
4123;BME280;2075;51.062;6.920;2023-05-27T08:13:19;87697.44;;;-144.48;20.50
4123;BME280;2075;51.062;6.920;2023-05-27T08:16:27;88674.97;;;-144.48;21.19
4123;BME280;2075;51.062;6.920;2023-05-27T08:19:22;88318.00;;;-144.48;21.08
4123;BME280;2075;51.062;6.920;2023-05-27T08:22:18;89096.91;;;-144.48;21.91
4123;BME280;2075;51.062;6.920;2023-05-27T08:25:16;89129.34;;;-144.48;22.04
4123;BME280;2075;51.062;6.920;2023-05-27T08:28:20;88581.66;;;-144.48;21.36
4123;BME280;2075;51.062;6.920;2023-05-27T08:31:25;87914.41;;;-144.48;20.97
4123;BME280;2075;51.062;6.920;2023-05-27T08:34:13;87969.16;;;-144.48;20.71
4123;BME280;2075;51.062;6.920;2023-05-27T08:36:58;87813.00;;;-144.48;20.70
4123;BME280;2075;51.062;6.920;2023-05-27T08:39:47;88234.84;;;-144.48;21.15
4123;BME280;2075;51.062;6.920;2023-05-27T08:42:47;88249.03;;;-144.48;21.00
4123;BME280;2075;51.062;6.920;2023-05-27T08:45:33;88654.69;;;-144.48;21.58
4123;BME280;2075;51.062;6.920;2023-05-27T08:48:19;88902.16;;;-144.48;22.18
4123;BME280;2075;51.062;6.920;2023-05-27T08:51:05;88561.38;;;-144.48;21.49
4123;BME280;2075;51.062;6.920;2023-05-27T08:53:51;88778.41;;;-144.48;21.92
4123;BME280;2075;51.062;6.920;2023-05-27T08:56:39;88478.22;;;-144.48;21.37
4123;BME280;2075;51.062;6.920;2023-05-27T08:59:27;88082.72;;;-144.48;21.00
4123;BME280;2075;51.062;6.920;2023-05-27T09:02:14;88419.41;;;-144.48;21.57
4123;BME280;2075;51.062;6.920;2023-05-27T09:05:02;88748.00;;;-144.48;21.78
4123;BME280;2075;51.062;6.920;2023-05-27T09:07:48;89914.53;;;-144.48;23.65
4123;BME280;2075;51.062;6.920;2023-05-27T09:10:38;90994.19;;;-144.48;26.52
4123;BME280;2075;51.062;6.920;2023-05-27T09:13:29;91769.63;;;-144.48;29.53
4123;BME280;2075;51.062;6.920;2023-05-27T09:16:14;92033.56;;;-144.48;30.62
4123;BME280;2075;51.062;6.920;2023-05-27T09:19:14;92064.03;;;-144.48;31.16
4123;BME280;2075;51.062;6.920;2023-05-27T09:22:00;92336.09;;;-144.48;32.73
4123;BME280;2075;51.062;6.920;2023-05-27T09:24:45;92189.91;;;-144.48;33.30
4123;BME280;2075;51.062;6.920;2023-05-27T09:27:31;92208.19;;;-144.48;34.00
4123;BME280;2075;51.062;6.920;2023-05-27T09:30:20;92321.88;;;-144.48;34.89
4123;BME280;2075;51.062;6.920;2023-05-27T09:33:06;92252.84;;;-144.48;34.55
4123;BME280;2075;51.062;6.920;2023-05-27T09:35:52;92250.81;;;-144.48;34.41
4123;BME280;2075;51.062;6.920;2023-05-27T09:38:38;92232.53;;;-144.48;34.26
4123;BME280;2075;51.062;6.920;2023-05-27T09:41:24;92238.63;;;-144.48;34.30
4123;BME280;2075;51.062;6.920;2023-05-27T09:44:11;92206.16;;;-144.48;34.42
4123;BME280;2075;51.062;6.920;2023-05-27T09:47:00;92325.94;;;-144.48;34.71
4123;BME280;2075;51.062;6.920;2023-05-27T09:49:48;92263.00;;;-144.48;34.84
4123;BME280;2075;51.062;6.920;2023-05-27T09:52:40;92256.91;;;-144.48;34.82
4123;BME280;2075;51.062;6.920;2023-05-27T09:55:28;92258.94;;;-144.48;34.41
4123;BME280;2075;51.062;6.920;2023-05-27T09:58:14;92263.00;;;-144.48;34.78
4123;BME280;2075;51.062;6.920;2023-05-27T10:01:00;92254.88;;;-144.48;34.58
4123;BME280;2075;51.062;6.920;2023-05-27T10:03:49;92189.91;;;-144.48;34.51
4123;BME280;2075;51.062;6.920;2023-05-27T10:06:36;92269.09;;;-144.48;33.77
4123;BME280;2075;51.062;6.920;2023-05-27T10:09:23;92246.75;;;-144.48;34.38
4123;BME280;2075;51.062;6.920;2023-05-27T10:12:09;91783.84;;;-144.48;34.46
4123;BME280;2075;51.062;6.920;2023-05-27T10:14:55;92291.44;;;-144.48;34.47
4123;BME280;2075;51.062;6.920;2023-05-27T10:17:42;92291.44;;;-144.48;34.43
4123;BME280;2075;51.062;6.920;2023-05-27T10:20:30;92327.97;;;-144.48;35.60
4123;BME280;2075;51.062;6.920;2023-05-27T10:23:18;92518.84;;;-144.48;35.82
4123;BME280;2075;51.062;6.920;2023-05-27T10:26:06;92449.81;;;-144.48;36.38
4123;BME280;2075;51.062;6.920;2023-05-27T10:28:52;92468.09;;;-144.48;36.20
4123;BME280;2075;51.062;6.920;2023-05-27T10:31:44;92486.38;;;-144.48;36.23
4123;BME280;2075;51.062;6.920;2023-05-27T10:34:34;92421.38;;;-144.48;36.00
4123;BME280;2075;51.062;6.920;2023-05-27T10:37:24;92413.25;;;-144.48;36.18
4123;BME280;2075;51.062;6.920;2023-05-27T10:40:12;92386.88;;;-144.48;35.91
4123;BME280;2075;51.062;6.920;2023-05-27T10:43:00;92279.25;;;-144.48;35.79
4123;BME280;2075;51.062;6.920;2023-05-27T10:45:46;92332.03;;;-144.48;35.59
4123;BME280;2075;51.062;6.920;2023-05-27T10:48:32;92344.22;;;-144.48;34.79
4123;BME280;2075;51.062;6.920;2023-05-27T10:51:18;92317.81;;;-144.48;34.46
4123;BME280;2075;51.062;6.920;2023-05-27T10:54:05;92271.13;;;-144.48;34.27
4123;BME280;2075;51.062;6.920;2023-05-27T10:56:52;92368.59;;;-144.48;35.52
4123;BME280;2075;51.062;6.920;2023-05-27T10:59:48;92431.53;;;-144.48;34.69
4123;BME280;2075;51.062;6.920;2023-05-27T11:02:33;92421.38;;;-144.48;34.42
4123;BME280;2075;51.062;6.920;2023-05-27T11:05:19;92470.13;;;-144.48;34.12
4123;BME280;2075;51.062;6.920;2023-05-27T11:08:11;92417.31;;;-144.48;32.86
4123;BME280;2075;51.062;6.920;2023-05-27T11:10:59;92348.28;;;-144.48;34.73
4123;BME280;2075;51.062;6.920;2023-05-27T11:13:46;92289.41;;;-144.48;34.47
4123;BME280;2075;51.062;6.920;2023-05-27T11:16:31;92279.25;;;-144.48;33.71
4123;BME280;2075;51.062;6.920;2023-05-27T11:19:17;92214.28;;;-144.48;34.08
4123;BME280;2075;51.062;6.920;2023-05-27T11:22:03;92307.66;;;-144.48;33.36
4123;BME280;2075;51.062;6.920;2023-05-27T11:24:58;92281.28;;;-144.48;33.65
4123;BME280;2075;51.062;6.920;2023-05-27T11:27:45;92267.06;;;-144.48;33.84
4123;BME280;2075;51.062;6.920;2023-05-27T11:30:34;92236.59;;;-144.48;34.63
4123;BME280;2075;51.062;6.920;2023-05-27T11:33:29;92319.84;;;-144.48;34.80
4123;BME280;2075;51.062;6.920;2023-05-27T11:36:16;92301.59;;;-144.48;35.26
4123;BME280;2075;51.062;6.920;2023-05-27T11:39:01;92254.88;;;-144.48;35.41
4123;BME280;2075;51.062;6.920;2023-05-27T11:41:49;92305.63;;;-144.48;35.12
4123;BME280;2075;51.062;6.920;2023-05-27T11:44:37;92340.16;;;-144.48;34.79
4123;BME280;2075;51.062;6.920;2023-05-27T11:47:22;92275.19;;;-144.48;34.86
4123;BME280;2075;51.062;6.920;2023-05-27T11:50:08;92325.94;;;-144.48;35.19
4123;BME280;2075;51.062;6.920;2023-05-27T11:52:56;92234.56;;;-144.48;34.97
4123;BME280;2075;51.062;6.920;2023-05-27T11:55:45;92269.09;;;-144.48;34.77
4123;BME280;2075;51.062;6.920;2023-05-27T11:58:30;92254.88;;;-144.48;35.18
4123;BME280;2075;51.062;6.920;2023-05-27T12:01:20;92216.31;;;-144.48;34.36
4123;BME280;2075;51.062;6.920;2023-05-27T12:04:06;92275.19;;;-144.48;34.47
4123;BME280;2075;51.062;6.920;2023-05-27T12:06:51;92273.16;;;-144.48;34.12
4123;BME280;2075;51.062;6.920;2023-05-27T12:09:37;92252.84;;;-144.48;33.63
4123;BME280;2075;51.062;6.920;2023-05-27T12:12:22;92222.38;;;-144.48;33.70
4123;BME280;2075;51.062;6.920;2023-05-27T12:15:08;92210.22;;;-144.48;33.95
4123;BME280;2075;51.062;6.920;2023-05-27T12:17:56;92189.91;;;-144.48;33.68
4123;BME280;2075;51.062;6.920;2023-05-27T12:20:41;92198.03;;;-144.48;33.55
4123;BME280;2075;51.062;6.920;2023-05-27T12:23:26;92171.63;;;-144.48;32.53
4123;BME280;2075;51.062;6.920;2023-05-27T12:26:13;92212.25;;;-144.48;30.76
4123;BME280;2075;51.062;6.920;2023-05-27T12:28:58;92226.44;;;-144.48;32.74
4123;BME280;2075;51.062;6.920;2023-05-27T12:31:44;92273.16;;;-144.48;32.80
4123;BME280;2075;51.062;6.920;2023-05-27T12:34:30;92151.31;;;-144.48;32.52
4123;BME280;2075;51.062;6.920;2023-05-27T12:37:16;92116.81;;;-144.48;32.37
4123;BME280;2075;51.062;6.920;2023-05-27T12:40:02;92226.44;;;-144.48;32.58
4123;BME280;2075;51.062;6.920;2023-05-27T12:42:49;92218.31;;;-144.48;33.10
4123;BME280;2075;51.062;6.920;2023-05-27T12:45:35;92165.53;;;-144.48;32.70
4123;BME280;2075;51.062;6.920;2023-05-27T12:48:21;92106.66;;;-144.48;32.45
4123;BME280;2075;51.062;6.920;2023-05-27T12:51:08;92129.00;;;-144.48;33.03
4123;BME280;2075;51.062;6.920;2023-05-27T12:53:53;92214.28;;;-144.48;32.39
4123;BME280;2075;51.062;6.920;2023-05-27T12:56:39;92171.63;;;-144.48;32.63
4123;BME280;2075;51.062;6.920;2023-05-27T12:59:25;92149.28;;;-144.48;30.66
4123;BME280;2075;51.062;6.920;2023-05-27T13:02:10;92155.38;;;-144.48;29.98
4123;BME280;2075;51.062;6.920;2023-05-27T13:04:55;92116.81;;;-144.48;29.63
4123;BME280;2075;51.062;6.920;2023-05-27T13:07:53;92092.44;;;-144.48;28.85
4123;BME280;2075;51.062;6.920;2023-05-27T13:10:39;92045.75;;;-144.48;29.12
4123;BME280;2075;51.062;6.920;2023-05-27T13:13:25;92092.44;;;-144.48;28.68
4123;BME280;2075;51.062;6.920;2023-05-27T13:16:10;92137.13;;;-144.48;29.00
4123;BME280;2075;51.062;6.920;2023-05-27T13:18:57;92173.66;;;-144.48;29.16
4123;BME280;2075;51.062;6.920;2023-05-27T13:21:43;92120.88;;;-144.48;29.23
4123;BME280;2075;51.062;6.920;2023-05-27T13:24:30;92120.88;;;-144.48;29.26
4123;BME280;2075;51.062;6.920;2023-05-27T13:27:15;92051.84;;;-144.48;28.61
4123;BME280;2075;51.062;6.920;2023-05-27T13:30:01;92041.69;;;-144.48;29.14
4123;BME280;2075;51.062;6.920;2023-05-27T13:32:47;92019.34;;;-144.48;29.89
4123;BME280;2075;51.062;6.920;2023-05-27T13:35:33;92013.25;;;-144.48;30.13
4123;BME280;2075;51.062;6.920;2023-05-27T13:38:18;92055.91;;;-144.48;30.50
4123;BME280;2075;51.062;6.920;2023-05-27T13:41:05;92043.72;;;-144.48;29.87
4123;BME280;2075;51.062;6.920;2023-05-27T13:43:51;92023.41;;;-144.48;28.37
4123;BME280;2075;51.062;6.920;2023-05-27T13:46:37;92084.31;;;-144.48;27.38
4123;BME280;2075;51.062;6.920;2023-05-27T13:49:23;92102.59;;;-144.48;27.25
4123;BME280;2075;51.062;6.920;2023-05-27T13:52:09;92100.56;;;-144.48;27.54
4123;BME280;2075;51.062;6.920;2023-05-27T13:54:54;91974.69;;;-144.48;27.58
4123;BME280;2075;51.062;6.920;2023-05-27T13:57:41;91995.00;;;-144.48;27.31
4123;BME280;2075;51.062;6.920;2023-05-27T14:00:28;91976.72;;;-144.48;27.20
4123;BME280;2075;51.062;6.920;2023-05-27T14:03:15;91923.94;;;-144.48;27.61
4123;BME280;2075;51.062;6.920;2023-05-27T14:06:01;91948.28;;;-144.48;28.33
4123;BME280;2075;51.062;6.920;2023-05-27T14:08:47;92027.47;;;-144.48;29.93
4123;BME280;2075;51.062;6.920;2023-05-27T14:11:32;92055.91;;;-144.48;27.79
4123;BME280;2075;51.062;6.920;2023-05-27T14:14:19;91984.84;;;-144.48;29.03
4123;BME280;2075;51.062;6.920;2023-05-27T14:17:05;91958.44;;;-144.48;30.41
4123;BME280;2075;51.062;6.920;2023-05-27T14:19:51;91907.69;;;-144.48;30.05
4123;BME280;2075;51.062;6.920;2023-05-27T14:22:39;91966.56;;;-144.48;29.95
4123;BME280;2075;51.062;6.920;2023-05-27T14:25:26;91917.84;;;-144.48;29.71
4123;BME280;2075;51.062;6.920;2023-05-27T14:28:11;91865.03;;;-144.48;30.37
4123;BME280;2075;51.062;6.920;2023-05-27T14:30:59;91909.72;;;-144.48;30.39
4123;BME280;2075;51.062;6.920;2023-05-27T14:33:47;91970.63;;;-144.48;29.52
4123;BME280;2075;51.062;6.920;2023-05-27T14:36:33;91875.19;;;-144.48;29.52
4123;BME280;2075;51.062;6.920;2023-05-27T14:39:19;91923.94;;;-144.48;30.18
4123;BME280;2075;51.062;6.920;2023-05-27T14:42:06;91954.38;;;-144.48;30.08
4123;BME280;2075;51.062;6.920;2023-05-27T14:44:52;91806.16;;;-144.48;29.79
4123;BME280;2075;51.062;6.920;2023-05-27T14:47:39;91925.97;;;-144.48;29.34